Time;durP1;ratioP1;P1;durP2;ratioP2;P2;SDS_P1;SDS_P2;PMS_P1;PMS_P2;Temp;Humidity;BMP_temperature;BMP_pressure;BME280_temperature;BME280_humidity;BME280_pressure;Samples;Min_cycle;Max_cycle;Signal;HPM_P1;HPM_P2
2023/01/22 00:04:53;;;;;;;10.17;7.63;;;;;;;17.35;43.80;97223.88;10366207;28;20490;-26
2023/01/22 00:09:53;;;;;;;8.77;6.33;;;;;;;17.31;44.07;97212.00;10370245;28;20038;-27
2023/01/22 00:14:54;;;;;;;8.33;6.40;;;;;;;17.28;43.75;97231.34;10368834;28;20056;-26
2023/01/22 00:19:54;;;;;;;11.23;6.90;;;;;;;17.23;43.68;97222.88;10363958;28;20042;-26
2023/01/22 00:24:55;;;;;;;10.02;6.57;;;;;;;17.23;44.47;97226.22;10369750;28;20402;-27
2023/01/22 00:29:55;;;;;;;10.47;6.63;;;;;;;17.19;44.49;97224.50;10365376;28;20517;-27
2023/01/22 00:34:55;;;;;;;9.60;6.13;;;;;;;17.20;44.11;97217.75;10365597;28;20037;-27
2023/01/22 00:39:56;;;;;;;7.93;5.93;;;;;;;17.15;43.94;97215.16;10368920;28;20037;-27
2023/01/22 00:44:58;;;;;;;8.85;5.80;;;;;;;17.18;44.17;97210.16;10365656;28;20037;-27
2023/01/22 00:49:59;;;;;;;7.80;6.03;;;;;;;17.20;43.46;97211.03;10367495;28;20056;-26
2023/01/22 00:54:59;;;;;;;7.40;6.18;;;;;;;17.18;44.37;97204.25;10367023;28;20052;-27
2023/01/22 01:00:00;;;;;;;7.17;5.37;;;;;;;17.15;43.51;97209.28;10364130;28;20042;-27
2023/01/22 01:05:03;;;;;;;7.25;4.68;;;;;;;17.21;43.69;97199.19;10363188;28;20111;-27
2023/01/22 01:10:04;;;;;;;8.90;5.65;;;;;;;17.28;43.94;97203.50;10368285;28;20037;-27
2023/01/22 01:15:05;;;;;;;9.88;6.00;;;;;;;17.30;44.33;97202.72;10380038;28;20084;-26
2023/01/22 01:20:06;;;;;;;5.70;4.80;;;;;;;17.26;44.16;97205.19;10363639;28;20034;-27
2023/01/22 01:25:07;;;;;;;6.80;5.10;;;;;;;17.23;43.25;97210.22;10367556;28;20038;-27
2023/01/22 01:30:08;;;;;;;5.93;4.23;;;;;;;17.20;43.30;97203.44;10361233;28;20037;-27
2023/01/22 01:35:08;;;;;;;5.32;4.40;;;;;;;17.24;42.56;97204.31;10363229;28;20363;-27
2023/01/22 01:40:10;;;;;;;6.13;4.83;;;;;;;17.23;43.64;97193.34;10367191;28;20040;-27
2023/01/22 01:45:21;;;;;;;5.57;4.32;;;;;;;17.26;43.67;97200.13;10365685;28;20042;-26
2023/01/22 01:50:24;;;;;;;11.93;4.45;;;;;;;17.22;43.55;97190.78;10358355;28;20050;-26
2023/01/22 01:55:28;;;;;;;6.93;4.70;;;;;;;17.23;43.42;97189.97;10366885;28;20038;-26
2023/01/22 02:00:33;;;;;;;5.00;4.22;;;;;;;17.22;43.10;97180.66;10365717;28;20041;-26
2023/01/22 02:05:37;;;;;;;6.57;4.00;;;;;;;17.20;43.58;97172.22;10366021;28;20030;-27
2023/01/22 02:10:37;;;;;;;4.78;3.88;;;;;;;17.18;43.37;97168.81;10366482;28;20036;-27
2023/01/22 02:15:39;;;;;;;5.53;4.38;;;;;;;17.20;43.21;97172.22;10359157;28;20033;-27
2023/01/22 02:20:39;;;;;;;7.75;4.88;;;;;;;17.25;43.67;97173.13;10356055;28;20494;-27
2023/01/22 02:25:41;;;;;;;5.43;4.10;;;;;;;17.31;43.71;97179.09;10359858;28;20038;-26
2023/01/22 02:30:44;;;;;;;4.30;3.90;;;;;;;17.30;43.61;97184.13;10368964;28;20033;-26
2023/01/22 02:35:47;;;;;;;4.82;3.63;;;;;;;17.25;43.96;97180.72;10373911;28;20033;-25
2023/01/22 02:40:47;;;;;;;5.28;3.60;;;;;;;17.19;43.53;97175.56;10370666;28;20042;-27
2023/01/22 02:45:49;;;;;;;4.55;3.58;;;;;;;17.20;43.31;97179.78;10368755;28;20037;-27
2023/01/22 02:50:50;;;;;;;5.68;3.88;;;;;;;17.18;44.13;97168.81;10371248;28;20038;-26
2023/01/22 02:55:50;;;;;;;5.97;4.07;;;;;;;17.21;43.90;97164.66;10369549;28;20115;-27
2023/01/22 03:00:51;;;;;;;4.82;4.32;;;;;;;17.20;43.40;97169.69;10370267;28;20815;-26
2023/01/22 03:05:51;;;;;;;5.17;3.47;;;;;;;17.20;43.46;97168.00;10365873;28;20045;-26
2023/01/22 03:10:57;;;;;;;3.70;3.33;;;;;;;17.16;43.23;97155.31;10370583;28;20042;-26
2023/01/22 03:21:22;;;;;;;4.30;3.40;;;;;;;17.19;43.09;97150.28;10374591;28;20041;-27
2023/01/22 03:26:23;;;;;;;5.78;3.55;;;;;;;17.20;42.93;97147.78;10369225;28;20030;-27
2023/01/22 03:31:23;;;;;;;4.32;3.25;;;;;;;17.27;43.69;97148.69;10371669;28;20493;-27
2023/01/22 03:36:25;;;;;;;3.53;3.00;;;;;;;17.31;43.53;97155.50;10364491;28;20410;-26
2023/01/22 03:41:32;;;;;;;4.13;3.30;;;;;;;17.30;43.93;97162.22;10368763;28;20026;-27
2023/01/22 03:46:34;;;;;;;4.15;3.55;;;;;;;17.17;42.69;97162.88;10368217;28;21488;-27
2023/01/22 03:51:35;;;;;;;3.40;2.92;;;;;;;17.22;43.23;97165.47;10364901;28;20037;-27
2023/01/22 03:56:37;;;;;;;3.55;2.70;;;;;;;17.18;43.32;97153.63;10366760;28;21489;-27
2023/01/22 04:01:43;;;;;;;4.80;3.47;;;;;;;17.21;43.06;97157.06;10364782;28;20037;-27
2023/01/22 04:06:43;;;;;;;4.00;3.40;;;;;;;17.20;43.31;97146.91;10358341;28;20044;-26
2023/01/22 04:11:45;;;;;;;3.70;3.25;;;;;;;17.17;43.63;97152.78;10367166;28;20040;-26
2023/01/22 04:16:49;;;;;;;4.75;3.20;;;;;;;17.14;42.84;97162.88;10368246;28;20573;-27
2023/01/22 04:22:22;;;;;;;3.10;2.53;;;;;;;17.19;42.74;97152.81;10355762;28;20053;-27
2023/01/22 04:27:23;;;;;;;3.50;3.10;;;;;;;17.18;42.82;97154.50;10366926;28;20042;-26
2023/01/22 04:32:26;;;;;;;4.38;2.90;;;;;;;17.14;42.91;97152.75;10367735;28;20038;-27
2023/01/22 04:37:39;;;;;;;4.75;3.08;;;;;;;17.17;43.08;97157.00;10368002;28;20057;-27
2023/01/22 04:42:39;;;;;;;4.10;2.87;;;;;;;17.24;42.86;97154.53;10365938;28;20112;-28
2023/01/22 04:47:45;;;;;;;2.90;2.60;;;;;;;17.31;43.42;97151.25;10362455;28;20041;-27
2023/01/22 04:52:49;;;;;;;3.15;2.60;;;;;;;17.34;42.88;97155.50;10358889;28;20723;-27
2023/01/22 04:57:53;;;;;;;4.22;2.55;;;;;;;17.31;42.22;97163.09;10365749;28;20033;-26
2023/01/22 05:02:58;;;;;;;4.38;2.85;;;;;;;17.29;42.23;97167.25;10359712;28;20568;-27
2023/01/22 05:08:00;;;;;;;4.18;2.40;;;;;;;17.27;42.88;97168.91;10364797;28;20067;-26
2023/01/22 05:13:03;;;;;;;3.30;2.58;;;;;;;17.26;42.70;97174.81;10364332;28;20562;-27
2023/01/22 05:18:04;;;;;;;3.03;2.45;;;;;;;17.22;42.80;97170.53;10362142;28;20030;-25
2023/01/22 05:23:08;;;;;;;2.80;2.53;;;;;;;17.20;43.84;97182.31;10364804;28;20405;-26
2023/01/22 05:28:09;;;;;;;3.03;2.63;;;;;;;17.15;43.34;97178.91;10356960;28;20529;-26
2023/01/22 05:33:29;;;;;;;8.93;2.42;;;;;;;17.15;43.74;97183.97;10360279;28;20071;-27
2023/01/22 05:38:30;;;;;;;2.63;2.42;;;;;;;17.13;43.36;97185.59;10365290;28;20032;-27
2023/01/22 05:43:31;;;;;;;3.60;2.42;;;;;;;17.11;42.53;97182.22;10358328;28;20533;-26
2023/01/22 05:48:36;;;;;;;3.95;2.35;;;;;;;17.12;42.99;97182.25;10360313;28;20038;-27
2023/01/22 05:53:50;;;;;;;2.63;2.22;;;;;;;17.15;42.84;97184.81;10361723;28;20037;-27
2023/01/22 05:58:51;;;;;;;5.28;2.60;;;;;;;17.21;41.79;97191.63;10355656;28;20030;-27
2023/01/22 06:03:52;;;;;;;5.25;2.10;;;;;;;17.23;41.08;97184.91;10360000;28;20030;-27
2023/01/22 06:08:56;;;;;;;4.15;2.90;;;;;;;17.27;39.54;97196.75;10369344;28;20076;-25
2023/01/22 06:13:59;;;;;;;12.93;4.80;;;;;;;17.23;38.30;97200.09;10366305;28;20029;-26
2023/01/22 06:19:00;;;;;;;13.85;3.20;;;;;;;17.30;41.66;97211.97;10363558;28;20036;-27
2023/01/22 06:24:06;;;;;;;11.43;4.73;;;;;;;17.32;41.46;97213.69;10382681;28;20040;-27
2023/01/22 06:29:06;;;;;;;5.13;2.67;;;;;;;17.40;41.04;97213.84;10372579;28;20399;-26
2023/01/22 06:34:08;;;;;;;6.32;3.38;;;;;;;17.38;40.18;97207.88;10367378;28;20046;-27
2023/01/22 06:39:08;;;;;;;7.57;2.85;;;;;;;17.43;42.06;97211.34;10369556;28;20091;-27
2023/01/22 06:44:13;;;;;;;3.78;2.92;;;;;;;17.45;40.38;97209.66;10370118;28;20034;-27
2023/01/22 06:49:14;;;;;;;7.15;2.63;;;;;;;17.49;41.41;97219.00;10366949;28;20033;-27
2023/01/22 06:54:14;;;;;;;5.80;2.93;;;;;;;17.48;40.83;97240.09;10368052;28;20533;-26
2023/01/22 06:59:14;;;;;;;5.50;3.40;;;;;;;17.51;40.78;97237.59;10370249;28;20405;-26
2023/01/22 07:04:15;;;;;;;6.03;3.57;;;;;;;17.44;40.10;97238.34;10364285;28;20398;-27
2023/01/22 07:09:15;;;;;;;4.33;2.90;;;;;;;17.50;39.92;97243.47;10365618;28;20514;-27
2023/01/22 07:14:16;;;;;;;6.33;2.63;;;;;;;17.49;39.11;97246.84;10379280;28;20289;-27
2023/01/22 07:19:16;;;;;;;4.88;2.80;;;;;;;17.45;39.53;97245.97;10358573;28;20494;-27
2023/01/22 07:24:17;;;;;;;5.93;3.00;;;;;;;17.46;40.30;97247.66;10371282;28;20489;-27
2023/01/22 07:29:17;;;;;;;5.23;2.67;;;;;;;17.44;39.87;97244.25;10369943;28;20305;-26
2023/01/22 07:34:18;;;;;;;5.93;3.23;;;;;;;17.46;38.71;97252.72;10366645;28;20113;-27
2023/01/22 07:39:18;;;;;;;5.68;2.70;;;;;;;17.49;38.91;97247.69;10377592;28;20320;-27
2023/01/22 07:44:18;;;;;;;8.00;3.00;;;;;;;17.55;38.06;97257.91;10369514;28;20042;-27
2023/01/22 07:49:19;;;;;;;3.07;2.50;;;;;;;17.59;37.60;97258.78;10365636;28;20041;-27
2023/01/22 07:54:19;;;;;;;8.53;3.27;;;;;;;17.56;40.31;97261.28;10370912;28;20036;-26
2023/01/22 07:59:19;;;;;;;5.40;3.20;;;;;;;17.54;39.97;97265.47;10364342;28;20120;-26
2023/01/22 08:04:20;;;;;;;13.48;3.15;;;;;;;17.53;39.09;97266.28;10365316;28;20660;-27
2023/01/22 08:09:24;;;;;;;7.17;3.57;;;;;;;17.49;39.82;97269.63;10362640;28;20042;-25
2023/01/22 08:14:24;;;;;;;4.13;3.63;;;;;;;17.45;36.74;97265.34;10356582;28;20427;-26
2023/01/22 08:19:25;;;;;;;6.67;3.83;;;;;;;17.16;35.27;97271.69;10358190;28;20088;-26
2023/01/22 08:24:25;;;;;;;6.40;3.53;;;;;;;17.19;35.71;97276.78;10377996;28;20042;-26
2023/01/22 08:29:25;;;;;;;4.80;3.23;;;;;;;17.07;34.93;97281.69;10371780;28;20037;-26
2023/01/22 08:34:26;;;;;;;3.50;3.20;;;;;;;17.11;35.10;97288.47;10355825;28;20030;-27
2023/01/22 08:39:26;;;;;;;4.53;3.55;;;;;;;16.96;36.51;97288.25;10366691;28;20058;-27
2023/01/22 08:44:27;;;;;;;7.47;5.00;;;;;;;16.82;37.26;97290.56;10366612;28;20076;-26
2023/01/22 08:49:29;;;;;;;4.20;3.43;;;;;;;16.99;36.87;97285.78;10366810;28;20096;-26
2023/01/22 08:54:29;;;;;;;9.85;3.45;;;;;;;17.06;36.78;97295.16;10368523;28;20026;-26
2023/01/22 08:59:30;;;;;;;9.77;2.70;;;;;;;17.13;38.49;97294.41;10326421;28;20083;-27
2023/01/22 09:04:30;;;;;;;4.57;2.55;;;;;;;17.22;38.06;97289.47;10359245;28;20041;-27
2023/01/22 09:09:31;;;;;;;3.13;2.10;;;;;;;17.30;39.39;97296.34;10361503;28;20048;-27
2023/01/22 09:14:31;;;;;;;5.18;4.60;;;;;;;16.44;36.23;97295.84;10348047;28;20030;-25
2023/01/22 09:19:32;;;;;;;6.90;5.37;;;;;;;16.61;35.92;97291.91;10351778;28;20548;-25
2023/01/22 09:24:32;;;;;;;5.40;3.77;;;;;;;16.93;36.78;97295.78;10352793;28;20657;-27
2023/01/22 09:29:32;;;;;;;3.83;3.53;;;;;;;17.12;37.63;97311.28;10359634;28;20034;-26
2023/01/22 09:34:33;;;;;;;5.50;3.00;;;;;;;17.25;39.44;97318.19;10356977;28;20096;-26
2023/01/22 09:39:33;;;;;;;4.55;2.58;;;;;;;17.34;39.68;97320.84;10358074;28;20034;-26
2023/01/22 09:44:41;;;;;;;5.10;2.90;;;;;;;17.37;41.21;97308.28;10358481;28;20123;-27
2023/01/22 09:49:56;;;;;;;7.55;3.10;;;;;;;17.44;42.74;97319.34;10358993;28;20051;-27
2023/01/22 09:54:57;;;;;;;27.42;4.18;;;;;;;17.46;42.07;97317.66;10358880;28;20088;-26
2023/01/22 09:59:57;;;;;;;9.23;3.92;;;;;;;17.40;40.17;97317.63;10355595;28;21004;-26
2023/01/22 10:05:18;;;;;;;9.95;3.92;;;;;;;17.31;40.60;97325.03;10354598;28;20034;-26
2023/01/22 10:10:25;;;;;;;10.73;3.42;;;;;;;17.43;40.27;97315.97;10350536;28;20037;-27
2023/01/22 10:15:26;;;;;;;9.13;2.95;;;;;;;17.43;42.01;97308.38;10361566;28;20029;-27
2023/01/22 10:20:26;;;;;;;16.48;3.72;;;;;;;17.54;43.13;97316.09;10359329;28;20453;-27
2023/01/22 10:25:27;;;;;;;6.97;2.97;;;;;;;17.72;42.65;97321.38;10365618;28;20049;-27
2023/01/22 10:30:29;;;;;;;7.88;3.17;;;;;;;17.60;42.86;97317.03;10344475;28;20049;-26
2023/01/22 10:35:30;;;;;;;6.60;3.55;;;;;;;17.50;42.40;97319.44;10360148;28;20398;-26
2023/01/22 10:40:37;;;;;;;9.43;4.00;;;;;;;17.52;43.89;97311.03;10358540;28;20038;-27
2023/01/22 10:45:38;;;;;;;7.28;4.22;;;;;;;17.54;43.40;97308.50;10356814;28;20100;-27
2023/01/22 10:50:39;;;;;;;10.63;4.75;;;;;;;17.50;45.65;97300.00;10359123;28;20112;-28
2023/01/22 10:55:41;;;;;;;17.50;4.50;;;;;;;17.48;44.36;97311.81;10367522;28;20478;-27
2023/01/22 11:00:41;;;;;;;12.18;3.92;;;;;;;17.46;44.36;97305.00;10364971;28;20070;-26
2023/01/22 11:05:45;;;;;;;8.23;3.67;;;;;;;17.46;44.53;97318.53;10358905;28;20032;-28
2023/01/22 11:11:06;;;;;;;9.68;3.78;;;;;;;17.46;45.34;97323.59;10366294;28;20387;-27
2023/01/22 11:16:17;;;;;;;7.32;3.92;;;;;;;17.52;44.71;97327.88;10366611;28;20132;-26
2023/01/22 11:21:43;;;;;;;8.15;3.65;;;;;;;17.45;44.95;97321.03;10365002;28;20297;-27
2023/01/22 11:27:24;;;;;;;9.48;4.00;;;;;;;17.53;45.61;97329.59;10361849;28;20037;-27
2023/01/22 11:32:48;;;;;;;9.52;4.03;;;;;;;17.56;46.35;97325.41;10353650;28;20045;-26
2023/01/22 11:38:16;;;;;;;6.50;3.22;;;;;;;17.53;46.99;97332.13;10356350;28;20064;-26
2023/01/22 11:43:38;;;;;;;7.70;3.78;;;;;;;17.45;43.42;97311.78;10365509;28;20506;-27
2023/01/22 11:48:57;;;;;;;12.13;3.60;;;;;;;17.39;44.63;97305.75;10361176;28;20034;-26
2023/01/22 11:54:26;;;;;;;10.05;3.58;;;;;;;17.57;47.37;97306.03;10370046;28;20046;-28
2023/01/22 11:59:38;;;;;;;11.63;3.28;;;;;;;17.58;46.52;97302.66;10363842;28;20446;-27
2023/01/22 12:04:47;;;;;;;6.00;3.90;;;;;;;17.52;46.85;97297.50;10357744;28;20554;-26
2023/01/22 12:10:12;;;;;;;6.85;3.45;;;;;;;17.50;47.33;97300.00;10369077;28;20042;-27
2023/01/22 12:15:27;;;;;;;6.63;4.65;;;;;;;17.43;43.83;97293.19;10359680;28;20113;-27
2023/01/22 12:20:30;;;;;;;6.70;4.25;;;;;;;17.47;45.30;97301.66;10361209;28;20046;-27
2023/01/22 12:25:34;;;;;;;5.32;4.20;;;;;;;17.43;45.41;97298.25;10369251;28;20121;-26
2023/01/22 12:30:37;;;;;;;8.80;3.30;;;;;;;17.40;45.44;97295.66;10362276;28;20040;-28
2023/01/22 12:35:39;;;;;;;5.38;2.78;;;;;;;17.41;44.33;97299.91;10347301;28;20156;-27
2023/01/22 12:40:55;;;;;;;5.82;3.80;;;;;;;17.44;44.87;97299.97;10362842;28;20490;-27
2023/01/22 12:46:05;;;;;;;6.60;3.22;;;;;;;17.45;42.41;97305.84;10360612;28;20108;-27
2023/01/22 12:51:42;;;;;;;6.28;2.90;;;;;;;17.50;43.05;97314.38;10356100;28;20127;-27
2023/01/22 12:56:42;;;;;;;6.40;3.15;;;;;;;17.53;43.14;97309.34;10360101;28;20041;-27
2023/01/22 13:01:43;;;;;;;9.98;3.17;;;;;;;17.57;44.41;97311.09;10367219;28;20045;-26
2023/01/22 13:06:45;;;;;;;5.77;3.10;;;;;;;17.47;47.98;97319.38;10350875;28;20091;-26
2023/01/22 13:11:45;;;;;;;5.13;3.17;;;;;;;17.42;48.83;97323.53;10368784;28;20323;-26
2023/01/22 13:16:50;;;;;;;8.77;3.03;;;;;;;17.38;48.77;97329.38;10357831;28;20044;-26
2023/01/22 13:21:52;;;;;;;7.53;3.20;;;;;;;17.33;49.10;97323.38;10361707;28;20083;-27
2023/01/22 13:26:59;;;;;;;6.68;3.22;;;;;;;17.31;48.81;97323.34;10365820;28;20051;-27
2023/01/22 13:32:02;;;;;;;4.32;2.80;;;;;;;17.29;48.56;97326.69;10367228;28;20034;-26
2023/01/22 13:37:02;;;;;;;3.42;2.30;;;;;;;17.26;48.67;97335.06;10358903;28;20103;-26
2023/01/22 13:42:04;;;;;;;3.77;2.63;;;;;;;17.23;48.42;97335.03;10366531;28;20172;-27
2023/01/22 13:47:05;;;;;;;2.60;2.08;;;;;;;17.19;48.29;97348.50;10361892;28;20285;-27
2023/01/22 13:52:12;;;;;;;4.53;2.28;;;;;;;17.18;48.58;97345.94;10362524;28;20026;-25
2023/01/22 13:57:17;;;;;;;6.68;2.95;;;;;;;17.15;48.49;97341.66;10364176;28;20111;-27
2023/01/22 14:02:18;;;;;;;4.80;2.45;;;;;;;17.17;47.25;97349.28;10366368;28;20084;-27
2023/01/22 14:07:23;;;;;;;8.00;2.90;;;;;;;17.17;46.96;97349.28;10365826;28;20460;-27
2023/01/22 14:12:26;;;;;;;4.20;2.55;;;;;;;17.22;47.74;97352.72;10346958;28;20339;-26
2023/01/22 14:17:32;;;;;;;6.05;2.55;;;;;;;17.23;47.34;97357.81;10352269;28;20026;-27
2023/01/22 14:22:33;;;;;;;5.43;3.28;;;;;;;17.18;47.38;97361.09;10348259;28;20030;-26
2023/01/22 14:27:42;;;;;;;3.20;2.43;;;;;;;17.20;46.56;97361.97;10372204;28;20203;-26
2023/01/22 14:32:44;;;;;;;4.97;2.53;;;;;;;17.16;46.91;97365.31;10365381;28;20077;-27
2023/01/22 14:37:44;;;;;;;4.00;2.63;;;;;;;17.12;47.53;97371.13;10351063;28;20041;-26
2023/01/22 14:42:46;;;;;;;10.00;3.05;;;;;;;17.12;46.93;97376.19;10349471;28;20425;-27
2023/01/22 14:47:50;;;;;;;6.43;2.42;;;;;;;17.13;47.26;97378.75;10350448;28;20037;-27
2023/01/22 14:52:51;;;;;;;7.13;2.80;;;;;;;17.09;48.72;97373.63;10360372;28;20033;-26
2023/01/22 14:57:51;;;;;;;10.23;3.20;;;;;;;17.18;48.29;97383.88;10352738;28;20548;-26
2023/01/22 15:02:55;;;;;;;7.43;2.57;;;;;;;17.28;45.51;97381.53;10368003;28;20025;-27
2023/01/22 15:07:56;;;;;;;6.35;2.38;;;;;;;17.19;47.58;97388.97;10366327;28;20036;-26
2023/01/22 15:12:56;;;;;;;6.20;2.47;;;;;;;17.19;47.68;97394.03;10376370;28;20044;-26
2023/01/22 15:17:56;;;;;;;7.40;2.40;;;;;;;17.29;45.77;97395.00;10387763;28;20046;-26
2023/01/22 15:22:57;;;;;;;4.70;2.50;;;;;;;17.34;45.87;97409.44;10373228;28;20033;-27
2023/01/22 15:27:59;;;;;;;5.13;3.28;;;;;;;17.20;42.05;97405.00;10367164;28;20293;-27
2023/01/22 15:33:00;;;;;;;7.15;2.97;;;;;;;17.24;46.08;97406.75;10364629;28;20116;-27
2023/01/22 15:38:04;;;;;;;6.07;3.17;;;;;;;17.25;43.26;97411.81;10383414;28;20397;-26
2023/01/22 15:43:04;;;;;;;5.90;3.38;;;;;;;17.26;44.76;97410.16;10374543;28;20598;-26
2023/01/22 15:48:06;;;;;;;10.90;4.68;;;;;;;17.29;42.35;97406.00;10358231;28;20037;-26
2023/01/22 15:53:07;;;;;;;6.75;4.68;;;;;;;17.32;42.97;97417.84;10347793;28;20044;-27
2023/01/22 15:58:07;;;;;;;12.63;5.93;;;;;;;17.32;47.17;97412.78;10364840;28;20648;-27
2023/01/22 16:03:07;;;;;;;8.23;5.40;;;;;;;17.31;47.34;97423.75;10364700;28;20038;-27
2023/01/22 16:08:08;;;;;;;8.27;4.83;;;;;;;17.22;47.81;97424.44;10369635;28;20042;-26
2023/01/22 16:13:08;;;;;;;9.67;4.90;;;;;;;17.21;46.71;97421.88;10367463;28;20033;-26
2023/01/22 16:18:08;;;;;;;8.70;5.00;;;;;;;17.18;47.36;97427.75;10366698;28;20038;-27
2023/01/22 16:23:09;;;;;;;5.17;4.67;;;;;;;17.17;46.63;97423.50;10365558;28;20615;-27
2023/01/22 16:28:10;;;;;;;7.60;5.23;;;;;;;17.16;45.61;97419.28;10374916;28;20029;-27
2023/01/22 16:33:20;;;;;;;9.10;6.68;;;;;;;17.17;45.60;97437.84;10364354;28;20037;-26
2023/01/22 16:38:21;;;;;;;9.23;7.03;;;;;;;17.15;44.74;97444.56;10355553;28;20050;-27
2023/01/22 16:43:21;;;;;;;10.40;7.33;;;;;;;17.14;44.97;97448.75;10368556;28;20038;-27
2023/01/22 16:48:21;;;;;;;10.00;7.17;;;;;;;17.15;44.93;97454.69;10366002;28;20493;-29
2023/01/22 16:53:22;;;;;;;11.53;6.53;;;;;;;17.15;43.65;97458.06;10368305;28;20414;-27
2023/01/22 16:58:22;;;;;;;9.07;6.23;;;;;;;17.12;42.51;97462.22;10361701;28;20065;-27
2023/01/22 17:03:22;;;;;;;6.63;5.53;;;;;;;17.04;39.76;97461.22;10354542;28;20030;-26
2023/01/22 17:08:23;;;;;;;8.20;5.97;;;;;;;17.04;44.71;97464.63;10358518;28;20046;-27
2023/01/22 17:13:23;;;;;;;8.30;6.13;;;;;;;17.01;44.78;97464.56;10356419;28;20050;-27
2023/01/22 17:18:23;;;;;;;8.83;6.07;;;;;;;16.97;44.34;97459.41;10361203;28;20037;-27
2023/01/22 17:23:24;;;;;;;9.63;6.23;;;;;;;17.01;44.43;97473.84;10367746;28;20042;-28
2023/01/22 17:28:24;;;;;;;8.73;6.53;;;;;;;17.15;41.88;97469.88;10361847;28;20041;-27
2023/01/22 17:33:27;;;;;;;8.70;6.30;;;;;;;17.21;43.06;97475.00;10361964;28;20022;-26
2023/01/22 17:38:31;;;;;;;9.57;6.40;;;;;;;17.31;43.55;97477.72;10360200;28;20125;-27
2023/01/22 17:43:33;;;;;;;9.02;6.13;;;;;;;17.35;43.49;97487.09;10363024;28;20041;-27
2023/01/22 17:48:34;;;;;;;7.47;5.57;;;;;;;17.25;48.10;97492.81;10360228;28;20482;-27
2023/01/22 17:53:37;;;;;;;8.35;5.90;;;;;;;17.17;48.45;97499.41;10361569;28;20045;-26
2023/01/22 17:58:49;;;;;;;13.02;7.97;;;;;;;17.12;48.17;97502.69;10354069;28;20554;-27
2023/01/22 18:03:50;;;;;;;9.40;5.43;;;;;;;17.11;47.20;97516.16;10373757;28;20128;-27
2023/01/22 18:08:50;;;;;;;14.48;6.60;;;;;;;17.11;47.11;97508.56;10368984;28;20478;-28
2023/01/22 18:13:56;;;;;;;11.13;6.35;;;;;;;17.13;47.26;97514.50;10372755;28;20515;-26
2023/01/22 18:18:59;;;;;;;13.65;5.97;;;;;;;17.09;47.43;97523.72;10372701;28;20068;-27
2023/01/22 18:24:00;;;;;;;9.82;6.18;;;;;;;17.13;47.23;97524.63;10374216;28;20033;-25
2023/01/22 18:29:02;;;;;;;8.98;5.30;;;;;;;17.13;46.83;97522.09;10362122;28;20046;-26
2023/01/22 18:34:05;;;;;;;9.30;5.18;;;;;;;17.10;46.37;97539.78;10368259;28;20046;-28
2023/01/22 18:39:10;;;;;;;7.82;5.03;;;;;;;17.02;46.76;97523.59;10369283;28;20066;-27
2023/01/22 18:44:12;;;;;;;8.55;4.85;;;;;;;17.05;46.41;97531.22;10363331;28;20041;-26
2023/01/22 18:49:17;;;;;;;9.13;4.63;;;;;;;17.05;46.36;97536.28;10365501;28;20399;-27
2023/01/22 18:54:18;;;;;;;10.00;5.63;;;;;;;17.03;45.96;97543.00;10366056;28;20072;-27
2023/01/22 18:59:18;;;;;;;8.13;4.23;;;;;;;17.01;45.96;97548.06;10378679;28;20030;-27
2023/01/22 19:04:20;;;;;;;7.00;4.67;;;;;;;17.01;45.57;97547.19;10379208;28;20319;-27
2023/01/22 19:09:21;;;;;;;7.55;5.80;;;;;;;17.09;43.50;97543.13;10374742;28;20045;-27
2023/01/22 19:14:21;;;;;;;9.15;4.72;;;;;;;17.06;46.01;97551.50;10344321;28;20050;-27
2023/01/22 19:19:22;;;;;;;7.57;4.97;;;;;;;17.03;45.94;97559.06;10369071;28;20029;-27
2023/01/22 19:24:25;;;;;;;5.60;4.80;;;;;;;17.01;45.87;97559.84;10366733;28;20057;-26
2023/01/22 19:29:25;;;;;;;6.82;5.05;;;;;;;17.01;45.49;97558.19;10365759;28;20046;-26
2023/01/22 19:34:29;;;;;;;7.73;4.90;;;;;;;16.99;45.19;97554.75;10353997;28;20049;-27
2023/01/22 19:39:30;;;;;;;7.32;4.47;;;;;;;16.98;45.30;97565.69;10363461;28;20296;-26
2023/01/22 19:44:32;;;;;;;7.75;5.03;;;;;;;16.99;45.68;97561.50;10367392;28;20030;-26
2023/01/22 19:49:32;;;;;;;7.95;5.35;;;;;;;16.98;44.51;97555.56;10360350;28;20029;-27
2023/01/22 19:54:33;;;;;;;8.13;4.80;;;;;;;16.98;44.97;97554.72;10363518;28;20041;-26
2023/01/22 19:59:33;;;;;;;6.93;4.70;;;;;;;17.00;44.80;97560.66;10357434;28;20318;-27
2023/01/22 20:04:34;;;;;;;6.20;4.45;;;;;;;16.99;45.30;97558.97;10348069;28;20292;-27
2023/01/22 20:09:36;;;;;;;5.95;4.78;;;;;;;16.97;45.07;97563.13;10354620;28;20120;-26
2023/01/22 20:14:42;;;;;;;6.78;4.57;;;;;;;16.97;44.80;97558.06;10360729;28;20041;-27
2023/01/22 20:19:42;;;;;;;4.90;3.95;;;;;;;16.97;44.88;97560.59;10358922;28;20321;-28
2023/01/22 20:24:43;;;;;;;6.03;4.28;;;;;;;16.95;44.57;97570.69;10355679;28;20092;-26
2023/01/22 20:29:43;;;;;;;6.25;4.60;;;;;;;16.92;44.67;97565.56;10363717;28;20038;-26
2023/01/22 20:34:47;;;;;;;5.00;4.00;;;;;;;16.93;44.36;97574.00;10344323;28;20486;-27
2023/01/22 20:39:48;;;;;;;5.38;4.07;;;;;;;16.93;44.48;97582.47;10361102;28;20559;-28
2023/01/22 20:44:48;;;;;;;4.90;3.73;;;;;;;16.93;44.48;97577.41;10368147;28;20045;-27
2023/01/22 20:49:48;;;;;;;5.10;3.90;;;;;;;16.92;44.22;97584.97;10358125;28;20120;-27
2023/01/22 20:54:49;;;;;;;5.63;4.30;;;;;;;16.95;44.36;97587.53;10372372;28;20034;-27
2023/01/22 20:59:49;;;;;;;4.87;3.77;;;;;;;16.95;44.32;97590.94;10362796;28;20029;-26
2023/01/22 21:04:51;;;;;;;5.77;4.23;;;;;;;16.96;44.89;97586.72;10356415;28;20049;-27
2023/01/22 21:09:51;;;;;;;4.68;3.47;;;;;;;16.99;44.77;97587.63;10361797;28;20041;-27
2023/01/22 21:14:53;;;;;;;5.97;3.70;;;;;;;16.98;44.88;97590.97;10358916;28;20034;-27
2023/01/22 21:19:54;;;;;;;6.40;3.90;;;;;;;16.99;44.83;97589.31;10358798;28;20041;-28
2023/01/22 21:24:54;;;;;;;4.90;3.60;;;;;;;16.95;44.60;97579.94;10364222;28;20371;-27
2023/01/22 21:29:55;;;;;;;4.73;3.73;;;;;;;16.97;44.81;97583.34;10367651;28;20505;-27
2023/01/22 21:34:55;;;;;;;7.17;4.07;;;;;;;16.97;44.86;97588.41;10355854;28;20307;-27
2023/01/22 21:39:55;;;;;;;6.38;3.60;;;;;;;16.99;45.18;97597.75;10335879;28;20030;-27
2023/01/22 21:50:15;;;;;;;5.40;3.85;;;;;;;16.98;45.31;97590.16;10342135;28;20655;-27
2023/01/22 21:55:15;;;;;;;4.68;3.22;;;;;;;16.96;45.32;97581.66;10360968;28;20038;-26
2023/01/22 22:00:18;;;;;;;4.90;3.50;;;;;;;16.94;45.01;97585.84;10363412;28;20075;-26
2023/01/22 22:05:18;;;;;;;4.82;3.58;;;;;;;16.94;45.49;97585.84;10360813;28;20038;-26
2023/01/22 22:10:19;;;;;;;6.67;4.00;;;;;;;16.94;45.57;97599.34;10365281;28;20030;-27
2023/01/22 22:15:19;;;;;;;5.68;3.70;;;;;;;16.93;45.68;97597.66;10355768;28;20501;-26
2023/01/22 22:20:19;;;;;;;5.17;3.43;;;;;;;16.89;45.31;97589.97;10364663;28;20042;-27
2023/01/22 22:25:20;;;;;;;5.03;3.37;;;;;;;16.94;45.79;97603.53;10365244;28;20410;-27
2023/01/22 22:30:20;;;;;;;6.03;3.90;;;;;;;16.91;45.18;97604.31;10364712;28;20044;-27
2023/01/22 22:35:21;;;;;;;6.50;3.50;;;;;;;16.92;45.25;97600.13;10365081;28;20496;-25
2023/01/22 22:40:21;;;;;;;5.22;3.58;;;;;;;16.91;45.46;97590.84;10365948;28;20658;-28
2023/01/22 22:45:21;;;;;;;4.60;3.13;;;;;;;16.91;45.25;97600.97;10363148;28;20084;-27
2023/01/22 22:50:22;;;;;;;4.57;3.23;;;;;;;16.90;45.33;97609.38;10366719;28;20041;-27
2023/01/22 22:55:22;;;;;;;5.17;3.23;;;;;;;16.91;45.14;97598.44;10373109;28;20072;-27
2023/01/22 23:00:23;;;;;;;6.37;3.77;;;;;;;16.89;45.72;97598.38;10371966;28;20034;-25
2023/01/22 23:05:23;;;;;;;4.82;3.35;;;;;;;16.90;45.74;97601.78;10369084;28;20396;-28
2023/01/22 23:10:30;;;;;;;4.57;3.27;;;;;;;16.88;45.49;97593.28;10369819;28;20060;-27
2023/01/22 23:15:31;;;;;;;5.50;3.42;;;;;;;16.89;45.73;97587.44;10363168;28;20292;-26
2023/01/22 23:20:33;;;;;;;5.35;3.15;;;;;;;16.88;45.68;97589.09;10365299;28;20473;-27
2023/01/22 23:25:33;;;;;;;5.28;3.03;;;;;;;16.90;45.50;97594.19;10372077;28;20389;-27
2023/01/22 23:30:34;;;;;;;4.17;3.13;;;;;;;16.90;45.82;97581.56;10370900;28;20046;-27
2023/01/22 23:35:34;;;;;;;5.25;2.78;;;;;;;16.89;45.47;97585.75;10365272;28;20673;-27
2023/01/22 23:40:34;;;;;;;3.90;2.83;;;;;;;16.87;45.72;97582.34;10371528;28;20501;-26